Latest Weather Observations for Morawa Airport

IDW60801

Issued at 5:02 am WST Sunday 1 February 2015 (issued every 30 minutes, with the page automatically refreshed every 10 minutes)

About weather observations | Map of weather stations | Latest weather observations for WA | Other Formats
Station Details ID: 008296 Name: MORAWA AIRPORT Lat: -29.20 Lon: 116.02 Height: 271.4 m
Data from the previous 72 hours. | See also: Recent months at Morawa Airport
Date/Time
WST
Temp
°C
App
Temp
°C
Dew
Point
Rel
Hum
%
Delta-T
°C
Wind Press
QNH
hPa
Press
MSL
hPa
Rain
since 9 am
mm
Dir
 
Spd
km/h
Gust
km/h
Spd
kts
Gust
kts
01/05:00am 22.0 19.8 13.4 58 5.0 ENE 17 28 9 15 1009.8 1007.9 0.6
01/04:30am 22.2 17.6 13.5 57 5.1 ENE 30 41 16 22 1008.9 1007.1 0.6
01/04:00am 21.9 16.9 14.0 61 4.7 NE 33 46 18 25 1008.6 1006.8 0.6
01/03:30am 21.9 18.0 14.3 62 4.5 NE 28 39 15 21 1009.7 1007.8 0.6
01/03:00am 21.6 14.8 14.3 63 4.3 ENE 43 56 23 30 1008.8 1007.0 0.6
01/02:30am 21.1 14.4 14.7 67 3.8 ENE 43 56 23 30 1008.5 1006.7 0.6
01/02:00am 21.6 15.5 15.2 67 3.8 ENE 41 57 22 31 1010.5 1008.6 0.6
01/01:36am 22.7 17.9 14.0 58 5.1 ENE 32 54 17 29 1011.8 1010.0 0.6
01/01:30am 22.7 19.0 14.0 58 5.1 ENE 26 35 14 19 1012.0 1010.2 0.6
01/01:00am 23.5 21.3 13.4 53 5.9 NNE 17 24 9 13 1012.8 1011.0 0.6
01/12:30am 23.6 24.7 13.5 53 5.9 CALM 0 4 0 2 1012.7 1010.9 0.6
01/12:00am 23.6 22.2 13.5 53 5.9 ESE 13 22 7 12 1012.2 1010.4 0.6
 
Date/Time
WST
Temp
°C
App
Temp
°C
Dew
Point
Rel
Hum
%
Delta-T
°C
Wind Press
QNH
hPa
Press
MSL
hPa
Rain
since 9 am
mm
Dir
 
Spd
km/h
Gust
km/h
Spd
kts
Gust
kts
31/11:30pm 23.8 20.0 13.6 52 6.0 ENE 26 44 14 24 1011.4 1009.6 0.6
31/11:02pm 24.2 18.5 13.1 50 6.5 ENE 35 56 19 30 1010.4 1008.5 0.6
31/11:00pm 24.2 18.0 12.8 49 6.7 ENE 37 50 20 27 1010.3 1008.4 0.6
31/10:48pm 23.8 17.8 13.4 52 6.1 ENE 37 46 20 25 1010.5 1008.6 0.6
31/10:30pm 24.4 20.7 12.7 48 6.8 ENE 24 33 13 18 1012.5 1010.7 0.6
31/10:00pm 24.8 21.0 12.4 46 7.2 E 24 33 13 18 1012.6 1010.8 0.6
31/09:30pm 25.4 21.3 11.6 42 7.9 E 24 33 13 18 1013.0 1011.2 0.6
31/09:00pm 27.1 22.2 9.9 34 9.7 ENE 26 46 14 25 1012.8 1011.0 0.6
31/08:30pm 27.7 22.7 9.5 32 10.2 E 26 37 14 20 1012.0 1010.2 0.6
31/08:05pm 27.8 22.4 9.6 32 10.2 E 28 46 15 25 1011.4 1009.6 0.6
31/08:00pm 27.9 22.9 9.7 32 10.3 E 26 35 14 19 1011.5 1009.7 0.6
31/07:30pm 28.1 23.4 9.4 31 10.5 E 24 39 13 21 1011.0 1009.2 0.6
31/07:00pm 28.7 22.4 8.9 29 11.1 E 32 41 17 22 1010.4 1008.5 0.6
31/06:30pm 29.2 22.9 8.8 28 11.4 E 32 46 17 25 1010.2 1008.3 0.6
31/06:00pm 29.7 22.8 8.7 27 11.8 E 35 46 19 25 1009.3 1007.5 0.6
31/05:33pm 29.9 22.4 7.8 25 12.2 ESE 37 63 20 34 1008.9 1007.1 0.6
31/05:30pm 30.0 23.0 8.4 26 12.0 E 35 46 19 25 1009.0 1007.2 0.6
31/05:00pm 30.9 23.9 8.6 25 12.5 ESE 35 56 19 30 1009.3 1007.5 0.6
31/04:54pm 31.8 24.9 8.7 24 13.1 ESE 35 56 19 30 1009.3 1007.5 0.6
31/04:30pm 31.9 24.6 8.8 24 13.1 ESE 37 48 20 26 1009.3 1007.5 0.6
31/04:00pm 30.1 23.3 10.6 30 11.3 ESE 37 50 20 27 1009.4 1007.6 0.6
31/03:30pm 27.8 23.4 15.1 46 7.8 SE 32 43 17 23 1010.1 1008.2 0.6
31/03:00pm 29.1 23.0 11.6 33 10.2 SE 35 50 19 27 1010.3 1008.4 0.4
31/02:30pm 28.9 21.8 12.3 36 9.8 SE 41 52 22 28 1010.5 1008.6 0.4
31/02:00pm 27.3 21.7 13.3 42 8.4 SE 35 48 19 26 1010.8 1009.0 0.4
31/01:30pm 26.9 22.3 15.0 48 7.3 SE 33 43 18 23 1011.4 1009.6 0.4
31/01:00pm 25.0 21.6 15.9 57 5.6 SE 28 37 15 20 1011.7 1009.9 0.4
31/12:30pm 23.8 21.5 17.5 68 4.0 SSE 26 32 14 17 1011.9 1010.1 0.4
31/12:00pm 24.8 21.7 16.5 60 5.2 SSE 28 35 15 19 1012.1 1010.3 0.2
31/11:30am 23.1 21.2 16.6 67 4.0 SSE 22 30 12 16 1012.6 1010.8 0.2
31/11:00am 22.6 20.4 15.9 66 4.1 SSE 22 30 12 16 1012.7 1010.9 0.2
31/10:30am 23.4 21.1 14.7 58 5.2 SSE 20 28 11 15 1012.4 1010.6 0.2
31/10:00am 23.4 20.3 14.4 57 5.4 SSE 24 32 13 17 1012.3 1010.5 0.2
31/09:30am 22.7 20.3 15.3 63 4.5 S 22 28 12 15 1012.4 1010.6 0.2
31/09:00am 22.8 20.7 14.6 60 4.9 SSE 19 22 10 12 1013.0 1011.2 0.0
31/08:30am 23.0 21.3 14.6 59 5.0 SSE 17 24 9 13 1013.1 1011.3 0.0
31/08:00am 24.3 24.0 15.5 58 5.4 S 11 15 6 8 1012.6 1010.8 0.0
31/07:30am 24.9 24.1 14.1 51 6.5 SE 11 17 6 9 1012.5 1010.7 0.0
31/07:00am 24.4 25.5 14.5 54 5.9 SE 2 2 1 1 1012.1 1010.3 0.0
31/06:30am 24.3 24.5 14.1 53 6.1 ESE 6 7 3 4 1011.9 1010.1 0.0
31/06:00am 23.9 24.1 14.3 55 5.7 ESE 6 7 3 4 1011.7 1009.9 0.0
31/05:30am 24.1 23.7 14.2 54 5.9 ESE 9 9 5 5 1011.5 1009.7 0.0
31/05:00am 24.5 24.0 13.7 51 6.4 ENE 9 13 5 7 1011.0 1009.2 0.0
31/04:30am 24.6 23.7 13.8 51 6.4 ENE 11 17 6 9 1010.7 1008.9 0.0
31/04:00am 24.6 23.7 13.8 51 6.4 ENE 11 13 6 7 1010.9 1009.1 0.0
31/03:30am 24.4 24.3 13.9 52 6.2 E 7 9 4 5 1011.0 1009.2 0.0
31/03:00am 24.3 24.5 14.1 53 6.1 ENE 6 9 3 5 1011.0 1009.2 0.0
31/02:30am 24.2 24.4 14.3 54 5.9 E 6 9 3 5 1011.1 1009.3 0.0
31/02:00am 25.0 24.7 13.2 48 7.0 E 7 11 4 6 1011.7 1009.9 0.0
31/01:30am 24.7 24.7 14.2 52 6.3 NNE 7 13 4 7 1011.7 1009.9 0.0
31/01:00am 24.4 22.2 14.5 54 5.9 N 19 30 10 16 1011.8 1010.0 0.0
31/12:30am 25.5 24.3 14.0 49 6.9 N 13 17 7 9 1011.8 1010.0 0.0
31/12:00am 25.9 25.9 14.1 48 7.1 NE 7 17 4 9 1011.7 1009.9 0.0
 
Date/Time
WST
Temp
°C
App
Temp
°C
Dew
Point
Rel
Hum
%
Delta-T
°C
Wind Press
QNH
hPa
Press
MSL
hPa
Rain
since 9 am
mm
Dir
 
Spd
km/h
Gust
km/h
Spd
kts
Gust
kts
30/11:30pm 26.5 23.8 12.9 43 8.0 N 19 26 10 14 1011.8 1010.0 0.0
30/11:00pm 27.7 24.9 11.3 36 9.5 NE 17 26 9 14 1012.1 1010.3 0.0
30/10:30pm 28.2 24.7 10.9 34 10.0 ENE 20 26 11 14 1011.8 1010.0 0.0
30/10:00pm 27.9 24.8 11.5 36 9.5 E 19 28 10 15 1011.4 1009.6 0.0
30/09:30pm 28.2 24.4 11.3 35 9.8 E 22 32 12 17 1011.4 1009.6 0.0
30/09:00pm 28.6 24.4 11.2 34 10.1 ESE 24 33 13 18 1011.3 1009.5 0.0
30/08:30pm 29.6 24.1 10.7 31 10.9 E 30 46 16 25 1010.7 1008.9 0.0
30/08:25pm 29.6 24.4 10.2 30 11.1 E 28 46 15 25 1010.5 1008.6 0.0
30/08:00pm 29.4 25.4 10.5 31 10.9 ESE 22 32 12 17 1010.3 1008.4 0.0
30/07:30pm 30.2 25.2 9.7 28 11.7 SE 26 37 14 20 1009.7 1007.8 0.0
30/07:00pm 30.7 27.4 9.6 27 12.0 ESE 17 24 9 13 1009.4 1007.6 0.0
30/06:30pm 30.9 26.9 10.3 28 11.9 ESE 22 32 12 17 1009.0 1007.2 0.0
30/06:00pm 30.1 27.1 12.1 33 10.7 ESE 19 28 10 15 1008.7 1006.9 0.0
30/05:30pm 29.9 26.1 12.3 33 10.4 E 24 37 13 20 1008.5 1006.7 0.0
30/05:00pm 30.0 25.6 12.9 35 10.3 E 28 43 15 23 1008.4 1006.6 0.0
30/04:35pm 33.2 29.6 9.9 24 13.5 SE 19 50 10 27 1008.4 1006.6 0.0
30/04:30pm 34.1 31.0 8.7 21 14.5 SE 15 20 8 11 1007.9 1006.1 0.0
30/04:00pm 34.9 30.2 7.9 19 15.3 E 22 32 12 17 1007.8 1006.0 0.0
30/03:30pm 35.5 30.6 6.7 17 16.0 ESE 22 35 12 19 1007.8 1006.0 0.0
30/03:00pm 36.0 34.4 8.0 18 16.0 W 6 13 3 7 1008.0 1006.2 0.0
30/02:30pm 35.1 32.9 8.0 19 15.4 W 9 15 5 8 1008.4 1006.6 0.0
30/02:00pm 34.1 32.5 8.7 21 14.5 WSW 7 11 4 6 1008.8 1007.0 0.0
30/01:30pm 33.7 32.3 9.7 23 13.9 S 7 17 4 9 1009.1 1007.3 0.0
30/01:00pm 33.8 31.1 9.1 22 14.2 SSW 13 28 7 15 1009.3 1007.5 0.0
30/12:30pm 33.4 30.4 9.4 23 13.8 SSW 15 24 8 13 1009.2 1007.4 0.0
30/12:00pm 33.0 31.8 10.4 25 13.2 S 7 13 4 7 1010.2 1008.3 0.0
30/11:30am 32.8 31.0 10.8 26 12.9 S 11 19 6 10 1010.6 1008.8 0.0
30/11:00am 32.2 30.1 9.7 25 12.9 SSE 11 19 6 10 1010.8 1009.0 0.0
30/10:30am 31.8 29.3 8.1 23 13.3 ESE 11 22 6 12 1011.2 1009.4 0.0
30/10:00am 31.3 29.4 11.7 30 11.6 SE 13 20 7 11 1011.3 1009.5 0.0
30/09:30am 30.2 29.3 12.6 34 10.5 SE 9 15 5 8 1011.3 1009.5 0.0
30/09:00am 30.1 29.9 13.0 35 10.3 E 6 9 3 5 1011.1 1009.3 1.2
30/08:30am 28.6 30.0 14.4 41 8.7 CALM 0 6 0 3 1011.2 1009.4 1.2
30/08:00am 25.4 27.1 16.3 57 5.6 SW 2 4 1 2 1011.3 1009.5 1.2
30/07:30am 22.9 24.9 16.9 69 3.7 WSW 2 7 1 4 1011.1 1009.3 1.2
30/07:00am 21.3 22.8 17.5 79 2.4 WSW 6 6 3 3 1010.7 1008.9 1.2
30/06:30am 20.8 23.3 17.2 80 2.2 CALM 0 0 0 0 1010.6 1008.8 1.2
30/06:00am 21.2 22.8 17.0 77 2.6 SW 4 6 2 3 1010.2 1008.3 1.2
30/05:30am 21.3 22.4 17.1 77 2.6 SW 7 11 4 6 1009.9 1008.0 1.2
30/05:00am 21.7 22.8 17.1 75 2.9 WSW 7 13 4 7 1009.5 1007.7 1.2
30/04:30am 22.0 22.8 17.2 74 3.0 SSW 9 17 5 9 1009.8 1007.9 1.2
30/04:00am 22.3 22.5 16.8 71 3.4 WSW 11 15 6 8 1008.9 1007.1 1.2
30/03:30am 22.6 21.7 16.9 70 3.5 SSW 17 22 9 12 1009.0 1007.2 1.2
30/03:00am 23.3 23.1 16.6 66 4.2 SW 13 17 7 9 1008.8 1007.0 1.2
30/02:30am 23.4 24.2 17.4 69 3.8 SW 9 17 5 9 1008.9 1007.1 1.2
30/02:00am 23.1 23.9 17.3 70 3.6 SW 9 13 5 7 1009.0 1007.2 1.2
30/01:30am 22.4 24.2 18.2 77 2.7 NE 6 7 3 4 1008.7 1006.9 1.2
30/01:00am 22.6 25.3 18.6 78 2.5 NE 2 4 1 2 1009.1 1007.3 1.2
30/12:30am 22.7 24.8 18.9 79 2.4 NE 6 7 3 4 1009.3 1007.5 1.2
30/12:00am 22.8 26.3 19.6 82 2.1 CALM 0 0 0 0 1009.5 1007.7 1.2
 
Date/Time
WST
Temp
°C
App
Temp
°C
Dew
Point
Rel
Hum
%
Delta-T
°C
Wind Press
QNH
hPa
Press
MSL
hPa
Rain
since 9 am
mm
Dir
 
Spd
km/h
Gust
km/h
Spd
kts
Gust
kts
29/11:30pm 23.1 25.6 19.1 78 2.6 NE 4 4 2 2 1009.7 1007.8 1.2
29/11:00pm 23.3 26.6 19.2 78 2.6 CALM 0 0 0 0 1010.2 1008.3 1.2
29/10:30pm 23.2 25.8 18.3 74 3.1 NE 2 6 1 3 1010.2 1008.3 1.2
29/10:00pm 23.6 25.1 17.6 69 3.8 S 6 7 3 4 1010.4 1008.5 1.2
29/09:30pm 23.4 25.3 17.6 70 3.6 S 4 11 2 6 1010.7 1008.9 1.2
29/09:00pm 23.8 24.8 17.8 69 3.8 SW 9 11 5 6 1011.5 1009.7 0.8
29/08:30pm 24.2 23.8 17.2 65 4.4 S 15 20 8 11 1011.2 1009.4 0.8
29/08:00pm 24.7 22.3 16.4 60 5.1 S 24 32 13 17 1011.1 1009.3 0.8
29/07:30pm 25.9 25.2 16.5 56 5.9 SE 15 20 8 11 1010.7 1008.9 0.8
29/07:00pm 27.2 24.2 14.9 47 7.5 ESE 24 32 13 17 1010.0 1008.1 0.8
29/06:30pm 28.7 28.3 15.2 43 8.3 SE 11 19 6 10 1009.1 1007.3 0.8
29/06:00pm 29.0 26.0 12.4 36 9.8 S 20 26 11 14 1007.2 1005.3 0.8
29/05:30pm 27.7 23.5 13.6 42 8.5 S 28 37 15 20 1006.9 1005.0 0.8
29/05:00pm 26.7 21.3 13.8 45 7.7 S 35 50 19 27 1007.7 1005.9 0.4
29/04:40pm 28.4 22.1 12.3 37 9.5 SSW 37 52 20 28 1007.7 1005.9 0.2
29/04:30pm 27.0 20.9 14.1 45 7.8 SSW 39 54 21 29 1007.8 1006.0 0.2
29/04:07pm 29.7 27.0 11.7 33 10.6 SSW 17 48 9 26 1007.4 1005.6 0.2
29/04:00pm 30.6 27.0 10.0 28 11.8 WSW 19 32 10 17 1007.4 1005.6 0.2
29/03:30pm 32.0 27.6 8.9 24 13.1 NNE 22 44 12 24 1007.1 1005.2 0.0
29/03:00pm 29.0 25.1 14.4 41 8.9 WNW 28 37 15 20 1006.5 1004.6 0.0
29/02:30pm 33.3 30.1 11.2 26 13.1 NNW 19 33 10 18 1006.2 1004.3 0.0
29/02:00pm 35.5 33.8 11.2 23 14.5 W 11 17 6 9 1006.3 1004.4 0.0
29/01:30pm 37.1 35.3 9.6 19 16.1 SE 9 15 5 8 1006.5 1004.6 0.0
29/01:00pm 38.8 37.0 11.0 19 16.8 ENE 11 20 6 11 1007.1 1005.2 0.0
29/12:30pm 37.4 36.5 10.7 20 15.9 ENE 6 17 3 9 1007.8 1006.0 0.0
29/12:00pm 37.1 35.4 11.1 21 15.6 ENE 11 17 6 9 1008.2 1006.4 0.0
29/11:30am 36.5 34.2 10.6 21 15.4 NE 13 22 7 12 1008.7 1006.9 0.0
29/11:00am 35.4 33.7 12.4 25 14.0 ENE 13 22 7 12 1009.0 1007.2 0.0
29/10:30am 34.8 34.2 14.7 30 12.6 E 11 19 6 10 1009.1 1007.3 0.0
29/10:00am 32.4 33.0 15.8 36 10.5 ENE 7 13 4 7 1009.3 1007.5 0.0
29/09:30am 31.3 32.6 17.2 42 9.0 S 6 9 3 5 1009.7 1007.8 0.0
29/09:00am 28.4 29.7 18.5 55 6.4 S 9 13 5 7 1009.9 1008.0 1.4
29/08:30am 26.6 28.4 19.5 65 4.6 SSW 9 15 5 8 1009.9 1008.0 1.4
29/08:00am 25.2 26.1 19.3 70 3.8 SW 13 19 7 10 1009.8 1007.9 1.4
29/07:30am 24.4 25.9 19.7 75 3.1 SSW 11 13 6 7 1009.7 1007.8 1.4
29/07:00am 23.1 25.0 19.7 81 2.2 S 9 13 5 7 1009.4 1007.6 1.4
29/06:30am 22.4 23.5 19.6 84 1.8 SW 13 19 7 10 1009.2 1007.4 1.4
29/06:00am 22.4 24.7 19.4 83 1.9 S 6 9 3 5 1009.1 1007.3 1.4
29/05:30am 22.7 24.5 18.7 78 2.6 W 7 13 4 7 1008.9 1007.1 1.4

Other Formats:

Comma delimited format used in spreadsheet applications
http://www.bom.gov.au/fwo/IDW60801/IDW60801.94417.axf

JavaScript Object Notation format (JSON) in row-major order
http://www.bom.gov.au/fwo/IDW60801/IDW60801.94417.json